»·PEaware :: BOE327 KMEM-PHNL

BOE327 :: KMEM-PHNL

FLIGHT INFORMATION

Flight Status: Arrived
Operator:
Boeing Commercial Airplane Group
More flights by this operator :: More flights under this callsign
Pilot: Joshua O. (1597)
Aircraft: Unknown
(B77L)
More flights by this aircraft type
Origin: KMEM Memphis Intl
United States
Destination: PHNL Honolulu Intl
United States
More flights between these airports :: More routes between these airports
Route: ZUMIT2 FOXOM KM33I ZALDA KK42E KK45C KK48A KD51Y KD57W KD60U KU63Q BVL Q124 SLOWN KU61I RBL KACEM ADTIL R463 APACK MAGGI3
File this flight plan on PilotEdge
Remarks: SEL / FSMR
Altitude:
(Current/Filed)
34,000ft
Speed:
(Current/Filed)
465kts
Departed: 01-Jan-15 03:45 AM
Arrived: 01-Jan-15 11:56 AM
Distance/Time
Traveled:
3619nm/8:10
Distance/Time
To Go:
Arrived

Flight Plot

Page will automatically refresh every two minutes.


Map Options




Map Legend


Flown Route
Filed Route
Departure Airport
Arrival Airport
Navaid (VOR, NDB)
Fix

Horizontal Profiles

Position Reports

Time Latitude Longitude Heading Altitude Ground
Speed
01-Jan-15 03:13 35.063326 -89.973757 180 354ft 0kts
01-Jan-15 03:14 35.063326 -89.973757 180 354ft 0kts
01-Jan-15 03:15 35.063326 -89.973757 180 354ft 0kts
01-Jan-15 03:16 35.063326 -89.973757 180 354ft 0kts
01-Jan-15 03:17 35.063326 -89.973757 180 354ft 0kts
01-Jan-15 03:18 35.063326 -89.973757 180 354ft 0kts
01-Jan-15 03:19 35.063326 -89.973757 180 354ft 0kts
01-Jan-15 03:20 35.063326 -89.973757 180 354ft 0kts
01-Jan-15 03:21 35.063326 -89.973757 180 354ft 0kts
01-Jan-15 03:22 35.063326 -89.973757 180 354ft 0kts
01-Jan-15 03:23 35.063326 -89.973757 180 354ft 0kts
01-Jan-15 03:24 35.063326 -89.973757 180 354ft 0kts
01-Jan-15 03:25 35.063326 -89.973757 180 354ft 0kts
01-Jan-15 03:26 35.063326 -89.973757 180 354ft 0kts
01-Jan-15 03:27 35.063326 -89.973757 180 354ft 0kts
01-Jan-15 03:28 35.063326 -89.973757 180 354ft 0kts
01-Jan-15 03:29 35.063326 -89.973757 180 354ft 0kts
01-Jan-15 03:30 35.063326 -89.973757 180 354ft 0kts
01-Jan-15 03:31 35.063326 -89.973757 180 354ft 0kts
01-Jan-15 03:32 35.063326 -89.973757 180 354ft 0kts
01-Jan-15 03:33 35.063326 -89.973757 180 354ft 0kts
01-Jan-15 03:34 35.063324 -89.973757 180 354ft 0kts
01-Jan-15 03:35 35.063322 -89.973757 180 354ft 0kts
01-Jan-15 03:36 35.063322 -89.973757 180 354ft 0kts
01-Jan-15 03:37 35.060314 -89.974099 177 354ft 13kts
01-Jan-15 03:38 35.060006 -89.976403 266 354ft 13kts
01-Jan-15 03:39 35.060079 -89.980412 271 354ft 13kts
01-Jan-15 03:40 35.058814 -89.981640 157 354ft 9kts
01-Jan-15 03:41 35.058424 -89.978723 92 354ft 63kts
01-Jan-15 03:42 35.062898 -89.923092 53 2323ft 214kts
01-Jan-15 03:43 35.114473 -89.931676 292 5578ft 202kts
01-Jan-15 03:44 35.121570 -89.998218 275 8551ft 201kts
01-Jan-15 03:45 35.127355 -90.074127 275 10524ft 249kts
01-Jan-15 03:46 35.134646 -90.169466 275 12228ft 314kts
01-Jan-15 03:47 35.143144 -90.281867 276 15130ft 339kts
01-Jan-15 03:48 35.151772 -90.397025 276 18396ft 343kts
01-Jan-15 03:49 35.160766 -90.513965 276 21274ft 348kts
01-Jan-15 03:50 35.169316 -90.633506 277 23703ft 356kts
01-Jan-15 03:51 35.177899 -90.754920 273 25949ft 362kts
01-Jan-15 03:52 35.199367 -90.877330 283 27888ft 373kts
01-Jan-15 03:53 35.232506 -90.998999 284 29589ft 381kts
01-Jan-15 03:54 35.265931 -91.122247 283 31345ft 381kts
01-Jan-15 03:55 35.299765 -91.247370 283 32621ft 389kts
01-Jan-15 03:56 35.334201 -91.374234 282 33876ft 395kts
01-Jan-15 03:57 35.368922 -91.503958 283 34453ft 414kts
01-Jan-15 03:58 35.405900 -91.642521 283 34456ft 438kts
01-Jan-15 03:59 35.442563 -91.780422 282 34493ft 403kts
01-Jan-15 04:00 35.476409 -91.909745 281 34456ft 397kts
01-Jan-15 04:01 35.512301 -92.038398 286 34454ft 404kts
01-Jan-15 04:02 35.558951 -92.163370 287 34443ft 399kts
01-Jan-15 04:03 35.604607 -92.287807 287 34453ft 399kts
01-Jan-15 04:04 35.649901 -92.412495 287 34428ft 395kts
01-Jan-15 04:05 35.695159 -92.536363 286 34414ft 398kts
01-Jan-15 04:06 35.732118 -92.638779 286 34404ft 390kts
01-Jan-15 04:07 35.776077 -92.761196 286 34408ft 391kts
01-Jan-15 04:08 35.827341 -92.904606 286 34401ft 391kts
01-Jan-15 04:09 35.863745 -93.006850 286 34406ft 391kts
01-Jan-15 04:10 35.907354 -93.129784 286 34390ft 391kts
01-Jan-15 04:11 35.951018 -93.253364 286 34394ft 392kts
01-Jan-15 04:12 35.994753 -93.376679 285 34393ft 392kts
01-Jan-15 04:13 36.038042 -93.500782 285 34396ft 392kts
01-Jan-15 04:14 36.081300 -93.625028 286 34409ft 395kts
01-Jan-15 04:15 36.129808 -93.748062 288 34409ft 398kts
01-Jan-15 04:16 36.179188 -93.871331 288 34418ft 398kts
01-Jan-15 04:17 36.227892 -93.994370 287 34415ft 398kts
01-Jan-15 04:18 36.277209 -94.117506 287 34412ft 398kts
01-Jan-15 04:19 36.326057 -94.240858 287 34410ft 398kts
01-Jan-15 04:20 36.374630 -94.364363 287 34410ft 399kts
01-Jan-15 04:21 36.423308 -94.488670 287 34415ft 399kts
01-Jan-15 04:22 36.471850 -94.613125 287 34417ft 400kts
01-Jan-15 04:23 36.520167 -94.737488 286 34419ft 400kts
01-Jan-15 04:24 36.568617 -94.862688 286 34421ft 400kts
01-Jan-15 04:25 36.616683 -94.987397 287 34435ft 400kts
01-Jan-15 04:26 36.664859 -95.112859 287 34432ft 400kts
01-Jan-15 04:27 36.712779 -95.238180 287 34436ft 401kts
01-Jan-15 04:28 36.760715 -95.364028 287 34436ft 401kts
01-Jan-15 04:29 36.807442 -95.487203 288 34443ft 388kts
01-Jan-15 04:30 36.853566 -95.609254 287 34443ft 390kts
01-Jan-15 04:31 36.900091 -95.731910 288 34445ft 386kts
01-Jan-15 04:32 36.945639 -95.853898 288 34445ft 388kts
01-Jan-15 04:33 36.991359 -95.976714 289 34446ft 388kts
01-Jan-15 04:34 37.027794 -96.101867 283 34449ft 381kts
01-Jan-15 04:35 37.059295 -96.229236 284 34451ft 383kts
01-Jan-15 04:36 37.091723 -96.357110 281 34436ft 387kts
01-Jan-15 04:37 37.125472 -96.488020 280 34430ft 401kts
01-Jan-15 04:38 37.159530 -96.620992 279 34406ft 401kts
01-Jan-15 04:39 37.193469 -96.754938 279 34414ft 401kts
01-Jan-15 04:40 37.227042 -96.888264 279 34405ft 401kts
01-Jan-15 04:41 37.260595 -97.022240 279 34408ft 401kts
01-Jan-15 04:42 37.293992 -97.156328 280 34392ft 402kts
01-Jan-15 04:43 37.327344 -97.290961 280 34386ft 403kts
01-Jan-15 04:44 37.360520 -97.425605 279 34387ft 403kts
01-Jan-15 04:45 37.393491 -97.560165 280 34383ft 403kts
01-Jan-15 04:46 37.426723 -97.694996 279 34385ft 403kts
01-Jan-15 04:47 37.459378 -97.830479 280 34373ft 402kts
01-Jan-15 04:48 37.491702 -97.965324 280 34381ft 399kts
01-Jan-15 04:49 37.525154 -98.097864 283 34383ft 396kts
01-Jan-15 04:50 37.559143 -98.229816 283 34381ft 396kts
01-Jan-15 04:51 37.592905 -98.362217 283 34388ft 395kts
01-Jan-15 04:52 37.626986 -98.493724 281 34332ft 396kts
01-Jan-15 04:53 37.661177 -98.627341 281 34315ft 402kts
01-Jan-15 04:54 37.695549 -98.763026 280 34292ft 405kts
01-Jan-15 04:55 37.729802 -98.899120 280 34297ft 406kts
01-Jan-15 04:56 37.763904 -99.035360 280 34300ft 405kts
01-Jan-15 04:57 37.797663 -99.170927 280 34275ft 405kts
01-Jan-15 04:58 37.831526 -99.307757 279 34270ft 409kts
01-Jan-15 04:59 37.865417 -99.445422 279 34248ft 409kts
01-Jan-15 05:00 37.899123 -99.583132 279 34251ft 409kts
01-Jan-15 05:01 37.933190 -99.721542 279 34236ft 411kts
01-Jan-15 05:02 37.966424 -99.859816 278 34234ft 410kts
01-Jan-15 05:03 37.999655 -99.998489 278 34231ft 411kts
01-Jan-15 05:04 38.035377 -100.137347 279 34230ft 413kts
01-Jan-15 05:05 38.070939 -100.275907 279 34230ft 413kts
01-Jan-15 05:06 38.106300 -100.414822 279 34231ft 414kts
01-Jan-15 05:07 38.142555 -100.554380 279 34231ft 414kts
01-Jan-15 05:08 38.178099 -100.693945 279 34231ft 415kts
01-Jan-15 05:09 38.213325 -100.833445 279 34230ft 415kts
01-Jan-15 05:10 38.248550 -100.973792 279 34231ft 415kts
01-Jan-15 05:11 38.283457 -101.113681 279 34226ft 415kts
01-Jan-15 05:12 38.318342 -101.254289 278 34232ft 415kts
01-Jan-15 05:13 38.353114 -101.395248 279 34202ft 420kts
01-Jan-15 05:14 38.388112 -101.537967 278 34185ft 421kts
01-Jan-15 05:15 38.423316 -101.680822 278 34195ft 422kts
01-Jan-15 05:16 38.457959 -101.824457 278 34167ft 427kts
01-Jan-15 05:17 38.493221 -101.969886 281 34163ft 430kts
01-Jan-15 05:18 38.554592 -102.106678 293 34159ft 450kts
01-Jan-15 05:19 38.622988 -102.240290 292 34158ft 449kts
01-Jan-15 05:20 38.691374 -102.374742 293 34157ft 450kts
01-Jan-15 05:21 38.760182 -102.508673 292 34152ft 451kts
01-Jan-15 05:22 38.817424 -102.621436 292 34156ft 450kts
01-Jan-15 05:23 38.885746 -102.756745 292 34132ft 454kts
01-Jan-15 05:24 38.954294 -102.893102 292 34135ft 454kts
01-Jan-15 05:25 39.023016 -103.030396 292 34125ft 455kts
01-Jan-15 05:26 39.091422 -103.167654 293 34109ft 456kts
01-Jan-15 05:27 39.160030 -103.305900 292 34116ft 456kts
01-Jan-15 05:28 39.228254 -103.443977 293 34103ft 458kts
01-Jan-15 05:29 39.296571 -103.582840 293 34088ft 460kts
01-Jan-15 05:30 39.364783 -103.721286 292 34122ft 449kts
01-Jan-15 05:31 39.429764 -103.854938 292 34266ft 426kts
01-Jan-15 05:32 39.492313 -103.985225 290 34092ft 430kts
01-Jan-15 05:33 39.534544 -104.131177 281 34079ft 443kts
01-Jan-15 05:34 39.573459 -104.285261 281 34079ft 451kts
01-Jan-15 05:35 39.612775 -104.439807 282 34079ft 451kts
01-Jan-15 05:36 39.652759 -104.594039 281 34077ft 450kts
01-Jan-15 05:37 39.692363 -104.749937 281 34075ft 456kts
01-Jan-15 05:38 39.730789 -104.902601 282 34162ft 433kts
01-Jan-15 05:39 39.767680 -105.049995 282 34103ft 437kts
01-Jan-15 05:40 39.806058 -105.204332 282 34106ft 451kts
01-Jan-15 05:41 39.843931 -105.357627 282 34127ft 442kts
01-Jan-15 05:42 39.881098 -105.509090 282 34192ft 427kts
01-Jan-15 05:43 39.916415 -105.652471 284 34251ft 404kts
01-Jan-15 05:44 39.949994 -105.791095 284 34265ft 400kts
01-Jan-15 05:45 39.983233 -105.929903 284 34269ft 400kts
01-Jan-15 05:46 40.010589 -106.071894 276 34255ft 405kts
01-Jan-15 05:47 40.027673 -106.216930 274 34212ft 410kts
01-Jan-15 05:48 40.046076 -106.369278 274 34205ft 435kts
01-Jan-15 05:49 40.065975 -106.527940 274 34130ft 456kts
01-Jan-15 05:50 40.086700 -106.694028 276 34082ft 474kts
01-Jan-15 05:51 40.107925 -106.868289 276 34082ft 489kts
01-Jan-15 05:52 40.128861 -107.043147 277 34091ft 487kts
01-Jan-15 05:53 40.149525 -107.218163 277 34104ft 489kts
01-Jan-15 05:54 40.170128 -107.395057 277 34120ft 492kts
01-Jan-15 05:55 40.190500 -107.572369 276 34119ft 493kts
01-Jan-15 05:56 40.210649 -107.750217 276 34118ft 492kts
01-Jan-15 05:57 40.230481 -107.927806 276 34118ft 493kts
01-Jan-15 05:58 40.250085 -108.105840 276 34116ft 494kts
01-Jan-15 05:59 40.269408 -108.283952 275 34126ft 494kts
01-Jan-15 06:00 40.288521 -108.462690 275 34136ft 495kts
01-Jan-15 06:01 40.307215 -108.639922 273 34142ft 486kts
01-Jan-15 06:02 40.325504 -108.816342 272 34147ft 496kts
01-Jan-15 06:03 40.344079 -108.998421 272 34148ft 504kts
01-Jan-15 06:04 40.362657 -109.183310 272 34152ft 513kts
01-Jan-15 06:05 40.381015 -109.369128 272 34160ft 518kts
01-Jan-15 06:06 40.399273 -109.556841 271 34152ft 513kts
01-Jan-15 06:07 40.417055 -109.742448 270 34301ft 495kts
01-Jan-15 06:08 40.432931 -109.912080 270 34117ft 449kts
01-Jan-15 06:09 40.447276 -110.067920 274 34096ft 420kts
01-Jan-15 06:10 40.461218 -110.219935 273 34101ft 421kts
01-Jan-15 06:11 40.474962 -110.373147 274 34098ft 421kts
01-Jan-15 06:12 40.488792 -110.529023 270 34093ft 439kts
01-Jan-15 06:13 40.502971 -110.692493 270 34064ft 467kts
01-Jan-15 06:14 40.518044 -110.869113 272 34088ft 502kts
01-Jan-15 06:15 40.533827 -111.057257 273 34090ft 533kts
01-Jan-15 06:16 40.549862 -111.252283 273 34115ft 533kts
01-Jan-15 06:17 40.565534 -111.446720 272 34119ft 531kts
01-Jan-15 06:18 40.580811 -111.640181 272 34120ft 529kts
01-Jan-15 06:19 40.595696 -111.833142 271 34119ft 529kts
01-Jan-15 06:20 40.609965 -112.022598 269 34126ft 512kts
01-Jan-15 06:21 40.623458 -112.205908 268 34122ft 493kts
01-Jan-15 06:22 40.636143 -112.381848 267 34111ft 473kts
01-Jan-15 06:23 40.647596 -112.545139 272 34091ft 418kts
01-Jan-15 06:24 40.658119 -112.695861 272 34082ft 414kts
01-Jan-15 06:25 40.668427 -112.847200 272 34084ft 416kts
01-Jan-15 06:26 40.678608 -112.999273 270 34089ft 421kts
01-Jan-15 06:27 40.688861 -113.156715 268 34097ft 438kts
01-Jan-15 06:28 40.699261 -113.319600 267 34102ft 451kts
01-Jan-15 06:29 40.710022 -113.485688 266 34119ft 460kts
01-Jan-15 06:30 40.720354 -113.660095 267 34129ft 494kts
01-Jan-15 06:31 40.726077 -113.814671 265 34153ft 519kts
01-Jan-15 06:32 40.716203 -114.041506 267 34167ft 531kts
01-Jan-15 06:33 40.711387 -114.203245 267 34167ft 531kts
01-Jan-15 06:34 40.703955 -114.397781 266 34165ft 532kts
01-Jan-15 06:35 40.694738 -114.593675 264 34167ft 534kts
01-Jan-15 06:36 40.681362 -114.787882 265 34186ft 531kts
01-Jan-15 06:37 40.668333 -114.982819 266 34194ft 534kts
01-Jan-15 06:38 40.655960 -115.177856 266 34199ft 536kts
01-Jan-15 06:39 40.642564 -115.373689 266 34200ft 538kts
01-Jan-15 06:40 40.628683 -115.571043 266 34201ft 539kts
01-Jan-15 06:41 40.614500 -115.767846 265 34203ft 540kts
01-Jan-15 06:42 40.599947 -115.965115 265 34207ft 538kts
01-Jan-15 06:43 40.585572 -116.159958 264 34212ft 534kts
01-Jan-15 06:44 40.570401 -116.352743 262 34218ft 524kts
01-Jan-15 06:45 40.560557 -116.543995 265 34231ft 515kts
01-Jan-15 06:46 40.554102 -116.730012 264 34228ft 509kts
01-Jan-15 06:47 40.547197 -116.913060 264 34230ft 499kts
01-Jan-15 06:48 40.540324 -117.095991 264 34233ft 500kts
01-Jan-15 06:49 40.532731 -117.279378 264 34242ft 507kts
01-Jan-15 06:50 40.524653 -117.466299 264 34252ft 513kts
01-Jan-15 06:51 40.516545 -117.656267 265 34262ft 524kts
01-Jan-15 06:52 40.507400 -117.848745 266 34284ft 529kts
01-Jan-15 06:53 40.497444 -118.042187 265 34290ft 530kts
01-Jan-15 06:54 40.481711 -118.234667 263 34293ft 530kts
01-Jan-15 06:55 40.465849 -118.427059 264 34291ft 530kts
01-Jan-15 06:56 40.450943 -118.620542 264 34281ft 531kts
01-Jan-15 06:57 40.435287 -118.812792 264 34274ft 530kts
01-Jan-15 06:58 40.419106 -119.005730 264 34259ft 530kts
01-Jan-15 06:59 40.402669 -119.197665 264 34223ft 529kts
01-Jan-15 07:00 40.385899 -119.389678 263 34200ft 529kts
01-Jan-15 07:01 40.368784 -119.581893 263 34180ft 529kts
01-Jan-15 07:02 40.351409 -119.773380 263 34175ft 529kts
01-Jan-15 07:03 40.333666 -119.965337 263 34173ft 529kts
01-Jan-15 07:04 40.315676 -120.156451 263 34176ft 529kts
01-Jan-15 07:05 40.297359 -120.347591 263 34172ft 529kts
01-Jan-15 07:06 40.278650 -120.539423 262 34171ft 529kts
01-Jan-15 07:07 40.259682 -120.730585 262 34171ft 529kts
01-Jan-15 07:08 40.240399 -120.921936 261 34173ft 527kts
01-Jan-15 07:09 40.220947 -121.111518 259 34175ft 523kts
01-Jan-15 07:10 40.201388 -121.298770 259 34178ft 519kts
01-Jan-15 07:11 40.181820 -121.483414 258 34182ft 508kts
01-Jan-15 07:12 40.162176 -121.666023 257 34191ft 499kts
01-Jan-15 07:13 40.142966 -121.843038 257 34189ft 488kts
01-Jan-15 07:14 40.123961 -122.016166 256 34194ft 482kts
01-Jan-15 07:15 40.103578 -122.194594 259 34197ft 512kts
01-Jan-15 07:16 40.060507 -122.365996 248 34193ft 464kts
01-Jan-15 07:17 40.009470 -122.518526 249 34195ft 458kts
01-Jan-15 07:18 39.960302 -122.670891 244 34195ft 459kts
01-Jan-15 07:19 39.910909 -122.826809 243 34172ft 470kts
01-Jan-15 07:20 39.860115 -122.984625 242 34185ft 469kts
01-Jan-15 07:21 39.808671 -123.143355 242 34156ft 487kts
01-Jan-15 07:22 39.754177 -123.310336 243 34137ft 516kts
01-Jan-15 07:23 39.696822 -123.485154 243 34159ft 525kts
01-Jan-15 07:24 39.639125 -123.659888 244 34157ft 529kts
01-Jan-15 07:25 39.580688 -123.835755 246 34148ft 534kts
01-Jan-15 07:26 39.521555 -124.012696 245 34159ft 531kts
01-Jan-15 07:27 39.462537 -124.188143 245 34157ft 532kts
01-Jan-15 07:28 39.402953 -124.364181 245 34144ft 535kts
01-Jan-15 07:29 39.342807 -124.540784 245 34140ft 536kts
01-Jan-15 07:30 39.282454 -124.716913 245 34139ft 536kts
01-Jan-15 07:31 39.221690 -124.893162 245 34138ft 536kts
01-Jan-15 07:32 39.160751 -125.068846 245 34137ft 536kts
01-Jan-15 07:33 39.099573 -125.244157 245 34137ft 536kts
01-Jan-15 07:34 39.038003 -125.419532 245 34137ft 537kts
01-Jan-15 07:35 38.976277 -125.594301 245 34137ft 537kts
01-Jan-15 07:36 38.914292 -125.768765 244 34137ft 537kts
01-Jan-15 07:37 38.851946 -125.943211 244 34137ft 537kts
01-Jan-15 07:38 38.789474 -126.116982 244 34136ft 537kts
01-Jan-15 07:39 38.726526 -126.291056 244 34137ft 537kts
01-Jan-15 07:40 38.663544 -126.464217 244 34136ft 537kts
01-Jan-15 07:41 38.600359 -126.637048 244 34137ft 537kts
01-Jan-15 07:42 38.536775 -126.810486 243 34136ft 536kts
01-Jan-15 07:43 38.472860 -126.982552 243 34137ft 537kts
01-Jan-15 07:44 38.405316 -127.152163 241 34136ft 536kts
01-Jan-15 07:45 38.336157 -127.321265 241 34134ft 537kts
01-Jan-15 07:46 38.267903 -127.490054 241 34136ft 536kts
01-Jan-15 07:47 38.210628 -127.631079 241 34137ft 536kts
01-Jan-15 07:48 38.141699 -127.799226 241 34134ft 537kts
01-Jan-15 07:49 38.072492 -127.967047 241 34137ft 536kts
01-Jan-15 07:50 38.002828 -128.135065 241 34136ft 536kts
01-Jan-15 07:51 37.921491 -128.330107 241 34136ft 536kts
01-Jan-15 07:52 37.863300 -128.468913 241 34133ft 536kts
01-Jan-15 07:53 37.792867 -128.636112 240 34136ft 536kts
01-Jan-15 07:54 37.722536 -128.802195 240 34137ft 536kts
01-Jan-15 07:55 37.651690 -128.968627 240 34131ft 537kts
01-Jan-15 07:56 37.580693 -129.134547 240 34136ft 536kts
01-Jan-15 07:57 37.509667 -129.299681 240 34136ft 536kts
01-Jan-15 07:58 37.438116 -129.465185 240 34132ft 537kts
01-Jan-15 07:59 37.366742 -129.629437 239 34139ft 535kts
01-Jan-15 08:00 37.294914 -129.793889 239 34140ft 534kts
01-Jan-15 08:01 37.223269 -129.957099 239 34141ft 534kts
01-Jan-15 08:02 37.151237 -130.120368 239 34136ft 535kts
01-Jan-15 08:03 37.078776 -130.283787 239 34140ft 534kts
01-Jan-15 08:04 37.006341 -130.446334 239 34139ft 535kts
01-Jan-15 08:05 36.933775 -130.608374 239 34135ft 535kts
01-Jan-15 08:06 36.860609 -130.770945 239 34141ft 534kts
01-Jan-15 08:07 36.787573 -130.932433 239 34138ft 535kts
01-Jan-15 08:08 36.713981 -131.094356 238 34134ft 535kts
01-Jan-15 08:09 36.640376 -131.255514 238 34138ft 535kts
01-Jan-15 08:10 36.566631 -131.416198 238 34132ft 536kts
01-Jan-15 08:11 36.491879 -131.578291 238 34122ft 539kts
01-Jan-15 08:12 36.417180 -131.739489 238 34123ft 539kts
01-Jan-15 08:13 36.342007 -131.900921 238 34122ft 539kts
01-Jan-15 08:14 36.266783 -132.061694 238 34123ft 539kts
01-Jan-15 08:15 36.191427 -132.221979 238 34122ft 539kts
01-Jan-15 08:16 36.115633 -132.382431 238 34122ft 539kts
01-Jan-15 08:17 36.039798 -132.542212 238 34122ft 539kts
01-Jan-15 08:18 35.963478 -132.702255 238 34122ft 539kts
01-Jan-15 08:19 35.887258 -132.861340 238 34122ft 539kts
01-Jan-15 08:20 35.810820 -133.020138 238 34122ft 539kts
01-Jan-15 08:21 35.733976 -133.179038 238 34122ft 539kts
01-Jan-15 08:22 35.657082 -133.337305 237 34122ft 539kts
01-Jan-15 08:23 35.580046 -133.495137 237 34122ft 539kts
01-Jan-15 08:24 35.502610 -133.653063 237 34122ft 538kts
01-Jan-15 08:25 35.425162 -133.810292 237 34122ft 538kts
01-Jan-15 08:26 35.347218 -133.967813 237 34122ft 538kts
01-Jan-15 08:27 35.269370 -134.124431 237 34122ft 538kts
01-Jan-15 08:28 35.191275 -134.280842 237 34122ft 538kts
01-Jan-15 08:29 35.113030 -134.437529 236 34122ft 538kts
01-Jan-15 08:30 35.034473 -134.593066 236 34122ft 538kts
01-Jan-15 08:31 34.958427 -134.750926 242 34121ft 539kts
01-Jan-15 08:32 34.897258 -134.918030 245 34122ft 540kts
01-Jan-15 08:33 34.835126 -135.084236 244 34122ft 539kts
01-Jan-15 08:34 34.772922 -135.251098 244 34122ft 539kts
01-Jan-15 08:35 34.710253 -135.416706 244 34122ft 539kts
01-Jan-15 08:36 34.647002 -135.582740 244 34122ft 539kts
01-Jan-15 08:37 34.583801 -135.747773 244 34122ft 539kts
01-Jan-15 08:38 34.520348 -135.912631 243 34122ft 539kts
01-Jan-15 08:39 34.456468 -136.077768 243 34122ft 539kts
01-Jan-15 08:40 34.392524 -136.242248 243 34122ft 539kts
01-Jan-15 08:41 34.328384 -136.406417 243 34122ft 539kts
01-Jan-15 08:42 34.263903 -136.570643 243 34122ft 539kts
01-Jan-15 08:43 34.199348 -136.734252 243 34122ft 539kts
01-Jan-15 08:44 34.134386 -136.898090 243 34122ft 539kts
01-Jan-15 08:45 34.069401 -137.061189 243 34122ft 539kts
01-Jan-15 08:46 34.004219 -137.223991 243 34122ft 539kts
01-Jan-15 08:47 33.938570 -137.387171 243 34122ft 539kts
01-Jan-15 08:48 33.872977 -137.549429 243 34122ft 539kts
01-Jan-15 08:49 33.806908 -137.712088 242 34122ft 539kts
01-Jan-15 08:50 33.740881 -137.873869 242 34122ft 539kts
01-Jan-15 08:51 33.674629 -138.035437 242 34122ft 539kts
01-Jan-15 08:52 33.607920 -138.197356 242 34122ft 539kts
01-Jan-15 08:53 33.541299 -138.358303 242 34122ft 539kts
01-Jan-15 08:54 33.474178 -138.519703 242 34122ft 539kts
01-Jan-15 08:55 33.407157 -138.680113 242 34122ft 539kts
01-Jan-15 08:56 33.339817 -138.840545 242 34122ft 539kts
01-Jan-15 08:57 33.272163 -139.000987 242 34122ft 539kts
01-Jan-15 08:58 33.204515 -139.160678 242 34122ft 539kts
01-Jan-15 08:59 33.136321 -139.320926 241 34122ft 539kts
01-Jan-15 09:00 33.068278 -139.480096 241 34122ft 539kts
01-Jan-15 09:01 33.000029 -139.639030 241 34122ft 539kts
01-Jan-15 09:02 32.942696 -139.771991 241 34122ft 539kts
01-Jan-15 09:03 32.874075 -139.930481 241 34122ft 539kts
01-Jan-15 09:04 32.804954 -140.089411 241 34122ft 539kts
01-Jan-15 09:05 32.724410 -140.273722 241 34122ft 539kts
01-Jan-15 09:06 32.666657 -140.405296 241 34122ft 539kts
01-Jan-15 09:07 32.597021 -140.563304 241 34122ft 539kts
01-Jan-15 09:08 32.527374 -140.720648 241 34122ft 539kts
01-Jan-15 09:09 32.457318 -140.878228 241 34122ft 539kts
01-Jan-15 09:10 32.387356 -141.034916 241 34122ft 539kts
01-Jan-15 09:11 32.317167 -141.191438 240 34122ft 539kts
01-Jan-15 09:12 32.246487 -141.348380 240 34122ft 539kts
01-Jan-15 09:13 32.175962 -141.504314 240 34122ft 539kts
01-Jan-15 09:14 32.105114 -141.660975 240 34122ft 539kts
01-Jan-15 09:15 32.034042 -141.816375 240 34122ft 539kts
01-Jan-15 09:16 31.962477 -141.972232 240 34122ft 539kts
01-Jan-15 09:17 31.890779 -142.127013 240 34122ft 539kts
01-Jan-15 09:18 31.818867 -142.281559 240 34121ft 539kts
01-Jan-15 09:19 31.747307 -142.436851 240 34122ft 539kts
01-Jan-15 09:20 31.678570 -142.584338 239 34416ft 474kts
01-Jan-15 09:21 31.616940 -142.716082 238 34087ft 457kts
01-Jan-15 09:22 31.555429 -142.846857 239 34082ft 455kts
01-Jan-15 09:23 31.494040 -142.977051 239 34082ft 455kts
01-Jan-15 09:24 31.432799 -143.106462 239 34082ft 455kts
01-Jan-15 09:25 31.371279 -143.236017 239 34082ft 455kts
01-Jan-15 09:26 31.309408 -143.365865 239 34082ft 455kts
01-Jan-15 09:27 31.247628 -143.495078 239 34082ft 455kts
01-Jan-15 09:28 31.185531 -143.624513 239 34082ft 455kts
01-Jan-15 09:29 31.123527 -143.753319 239 34082ft 455kts
01-Jan-15 09:30 31.061410 -143.881924 239 34082ft 455kts
01-Jan-15 09:31 30.998923 -144.010861 239 34082ft 455kts
01-Jan-15 09:32 30.936505 -144.139225 239 34082ft 455kts
01-Jan-15 09:33 30.873802 -144.267745 238 34082ft 455kts
01-Jan-15 09:34 30.811176 -144.395681 238 34082ft 455kts
01-Jan-15 09:35 30.748433 -144.523432 238 34082ft 455kts
01-Jan-15 09:36 30.685333 -144.651488 238 34082ft 455kts
01-Jan-15 09:37 30.622282 -144.779023 238 34082ft 455kts
01-Jan-15 09:38 30.558951 -144.906707 238 34082ft 455kts
01-Jan-15 09:39 30.495662 -145.033891 238 34082ft 455kts
01-Jan-15 09:40 30.432112 -145.161183 238 34082ft 455kts
01-Jan-15 09:41 30.368622 -145.287945 238 34082ft 455kts
01-Jan-15 09:42 30.304978 -145.414604 238 34082ft 455kts
01-Jan-15 09:43 30.241060 -145.541401 238 34082ft 455kts
01-Jan-15 09:44 30.177211 -145.667654 238 34082ft 455kts
01-Jan-15 09:45 30.113038 -145.794146 238 34082ft 455kts
01-Jan-15 09:46 30.048964 -145.920042 238 34082ft 455kts
01-Jan-15 09:47 29.984780 -146.045756 238 34082ft 455kts
01-Jan-15 09:48 29.920197 -146.171852 238 34082ft 455kts
01-Jan-15 09:49 29.855803 -146.297185 238 34082ft 455kts
01-Jan-15 09:50 29.790977 -146.422962 237 34082ft 455kts
01-Jan-15 09:51 29.726384 -146.547899 237 34082ft 455kts
01-Jan-15 09:52 29.661531 -146.672949 237 34082ft 455kts
01-Jan-15 09:53 29.596478 -146.797997 237 34082ft 455kts
01-Jan-15 09:54 29.531448 -146.922617 237 34082ft 455kts
01-Jan-15 09:55 29.466046 -147.047563 237 34082ft 455kts
01-Jan-15 09:56 29.400943 -147.171560 237 34082ft 453kts
01-Jan-15 09:57 29.335645 -147.295551 237 34082ft 453kts
01-Jan-15 09:58 29.270416 -147.418911 239 34057ft 448kts
01-Jan-15 09:59 29.205870 -147.540837 239 34043ft 446kts
01-Jan-15 10:00 29.141369 -147.662241 239 34043ft 446kts
01-Jan-15 10:01 29.076757 -147.783477 239 34043ft 447kts
01-Jan-15 10:02 29.011750 -147.905092 239 34043ft 447kts
01-Jan-15 10:03 28.946884 -148.026091 239 34043ft 447kts
01-Jan-15 10:04 28.881626 -148.147466 239 34043ft 447kts
01-Jan-15 10:05 28.816548 -148.268156 239 34043ft 447kts
01-Jan-15 10:06 28.751035 -148.389302 239 34043ft 447kts
01-Jan-15 10:07 28.685683 -148.509813 239 34043ft 447kts
01-Jan-15 10:08 28.620144 -148.630741 239 34043ft 447kts
01-Jan-15 10:09 28.554235 -148.751273 239 34043ft 447kts
01-Jan-15 10:10 28.488532 -148.871235 238 34043ft 447kts
01-Jan-15 10:11 28.433620 -148.970985 238 34043ft 447kts
01-Jan-15 10:12 28.367289 -149.091122 238 34043ft 447kts
01-Jan-15 10:13 28.301415 -149.210835 239 34043ft 447kts
01-Jan-15 10:14 28.235417 -149.330714 238 34043ft 447kts
01-Jan-15 10:15 28.169037 -149.450535 238 34043ft 447kts
01-Jan-15 10:16 28.102808 -149.569676 238 34043ft 447kts
01-Jan-15 10:17 28.036205 -149.689146 238 34043ft 447kts
01-Jan-15 10:18 27.969687 -149.808137 238 34048ft 447kts
01-Jan-15 10:19 27.902845 -149.927353 238 34043ft 447kts
01-Jan-15 10:20 27.836144 -150.046129 236 34079ft 451kts
01-Jan-15 10:21 27.768039 -150.166841 236 34081ft 454kts
01-Jan-15 10:22 27.700071 -150.287060 236 34082ft 454kts
01-Jan-15 10:23 27.631995 -150.407143 235 34082ft 454kts
01-Jan-15 10:24 27.563594 -150.527474 235 34082ft 454kts
01-Jan-15 10:25 27.495385 -150.647138 235 34082ft 454kts
01-Jan-15 10:26 27.426860 -150.767027 235 34082ft 454kts
01-Jan-15 10:27 27.358417 -150.886445 235 34082ft 454kts
01-Jan-15 10:28 27.289670 -151.006067 235 34082ft 454kts
01-Jan-15 10:29 27.221059 -151.125130 235 34082ft 454kts
01-Jan-15 10:30 27.152116 -151.244446 235 34082ft 454kts
01-Jan-15 10:31 27.083298 -151.363226 235 34082ft 454kts
01-Jan-15 10:32 27.014131 -151.482289 235 34082ft 454kts
01-Jan-15 10:33 26.945127 -151.600754 235 34082ft 454kts
01-Jan-15 10:34 26.875794 -151.719468 235 34082ft 454kts
01-Jan-15 10:35 26.806649 -151.837545 235 34082ft 452kts
01-Jan-15 10:36 26.737409 -151.955476 235 34082ft 453kts
01-Jan-15 10:37 26.667941 -152.073483 235 34082ft 453kts
01-Jan-15 10:38 26.598561 -152.191034 235 34082ft 453kts
01-Jan-15 10:39 26.528752 -152.309001 235 34082ft 453kts
01-Jan-15 10:40 26.459252 -152.426144 235 34082ft 453kts
01-Jan-15 10:41 26.389320 -152.543711 235 34082ft 453kts
01-Jan-15 10:42 26.319564 -152.660678 235 34082ft 453kts
01-Jan-15 10:43 26.249409 -152.778014 235 34082ft 453kts
01-Jan-15 10:44 26.179347 -152.894894 235 34082ft 453kts
01-Jan-15 10:45 26.109019 -153.011920 234 34082ft 453kts
01-Jan-15 10:46 26.038769 -153.128518 234 34082ft 453kts
01-Jan-15 10:47 25.968206 -153.245341 234 34082ft 453kts
01-Jan-15 10:48 25.897792 -153.361622 234 34082ft 453kts
01-Jan-15 10:49 25.827082 -153.478099 234 34082ft 453kts
01-Jan-15 10:50 25.756488 -153.594097 234 34082ft 453kts
01-Jan-15 10:51 25.685631 -153.710235 234 34082ft 453kts
01-Jan-15 10:52 25.614601 -153.826368 234 34082ft 453kts
01-Jan-15 10:53 25.543777 -153.941880 234 34082ft 453kts
01-Jan-15 10:54 25.472635 -154.057623 234 34082ft 453kts
01-Jan-15 10:55 25.401632 -154.172859 234 34082ft 453kts
01-Jan-15 10:56 25.330280 -154.288379 234 34082ft 453kts
01-Jan-15 10:57 25.259049 -154.403423 234 34082ft 453kts
01-Jan-15 10:58 25.187558 -154.518607 234 34082ft 453kts
01-Jan-15 10:59 25.115957 -154.633692 234 34082ft 453kts
01-Jan-15 11:00 25.044514 -154.748248 234 34082ft 453kts
01-Jan-15 11:01 24.972716 -154.863101 234 34082ft 453kts
01-Jan-15 11:02 24.900919 -154.977734 234 34082ft 453kts
01-Jan-15 11:03 24.829338 -155.091941 234 34082ft 453kts
01-Jan-15 11:04 24.757228 -155.206260 234 34082ft 453kts
01-Jan-15 11:05 24.685178 -155.319975 233 34082ft 453kts
01-Jan-15 11:06 24.612502 -155.433923 233 34082ft 453kts
01-Jan-15 11:07 24.540119 -155.547170 233 34082ft 453kts
01-Jan-15 11:08 24.467695 -155.660983 233 34082ft 453kts
01-Jan-15 11:09 24.407410 -155.755237 233 34082ft 453kts
01-Jan-15 11:10 24.322527 -155.887510 233 34082ft 453kts
01-Jan-15 11:11 24.249728 -156.000660 233 34082ft 453kts
01-Jan-15 11:12 24.189324 -156.094507 239 34032ft 451kts
01-Jan-15 11:13 24.116783 -156.206798 239 34021ft 452kts
01-Jan-15 11:14 24.038328 -156.315269 222 34023ft 467kts
01-Jan-15 11:15 23.911498 -156.362020 198 34021ft 490kts
01-Jan-15 11:16 23.779794 -156.397942 201 34021ft 487kts
01-Jan-15 11:17 23.648491 -156.437016 201 34021ft 487kts
01-Jan-15 11:18 23.517677 -156.475810 201 34021ft 487kts
01-Jan-15 11:19 23.386445 -156.514608 201 34021ft 487kts
01-Jan-15 11:20 23.255449 -156.553255 201 34021ft 487kts
01-Jan-15 11:21 23.124078 -156.591933 201 34021ft 488kts
01-Jan-15 11:22 22.993136 -156.630244 202 34020ft 488kts
01-Jan-15 11:23 22.861611 -156.668999 201 34020ft 488kts
01-Jan-15 11:24 22.730111 -156.707449 201 34020ft 488kts
01-Jan-15 11:25 22.601714 -156.744992 202 33515ft 459kts
01-Jan-15 11:26 22.475823 -156.781650 202 31346ft 464kts
01-Jan-15 11:27 22.353737 -156.817127 202 29481ft 445kts
01-Jan-15 11:28 22.235663 -156.851353 201 27513ft 430kts
01-Jan-15 11:29 22.122250 -156.884251 200 25632ft 414kts
01-Jan-15 11:30 22.012402 -156.916039 200 23697ft 402kts
01-Jan-15 11:31 21.906246 -156.946663 200 21854ft 389kts
01-Jan-15 11:32 21.817396 -157.002399 225 19941ft 366kts
01-Jan-15 11:33 21.749903 -157.081953 231 18098ft 355kts
01-Jan-15 11:34 21.686992 -157.163033 230 16220ft 349kts
01-Jan-15 11:35 21.625043 -157.242586 229 14252ft 345kts
01-Jan-15 11:36 21.563842 -157.321658 229 12326ft 340kts
01-Jan-15 11:37 21.504850 -157.397159 229 11303ft 310kts
01-Jan-15 11:38 21.452433 -157.464147 229 10700ft 277kts
01-Jan-15 11:39 21.405299 -157.524286 234 10135ft 249kts
01-Jan-15 11:40 21.360075 -157.582071 235 9112ft 252kts
01-Jan-15 11:41 21.315096 -157.639287 235 8022ft 247kts
01-Jan-15 11:42 21.272467 -157.695825 246 6986ft 236kts
01-Jan-15 11:43 21.254376 -157.765595 255 5937ft 250kts
01-Jan-15 11:44 21.237163 -157.830770 255 4854ft 219kts
01-Jan-15 11:45 21.218447 -157.892686 255 3780ft 215kts
01-Jan-15 11:46 21.201329 -157.953203 255 2681ft 209kts
01-Jan-15 11:47 21.181565 -158.011603 257 2018ft 205kts
01-Jan-15 11:48 21.221275 -158.038371 3 2033ft 201kts
01-Jan-15 11:49 21.260773 -158.002651 54 1779ft 189kts
01-Jan-15 11:50 21.290160 -157.960798 49 788ft 149kts
01-Jan-15 11:51 21.313406 -157.927923 53 69ft 132kts
01-Jan-15 11:52 21.322072 -157.915217 113 26ft 4kts
01-Jan-15 11:53 21.320997 -157.913971 49 26ft 0kts
01-Jan-15 11:54 21.320997 -157.913971 49 26ft 0kts
01-Jan-15 11:55 21.320997 -157.913971 49 26ft 0kts
01-Jan-15 11:56 21.320997 -157.913971 49 26ft 0kts
01-Jan-15 11:57 21.320997 -157.913971 49 26ft 0kts
01-Jan-15 11:58 21.320997 -157.913971 49 26ft 0kts
01-Jan-15 11:59 21.320997 -157.913971 49 26ft 0kts
01-Jan-15 12:00 21.320997 -157.913971 49 26ft 0kts
01-Jan-15 12:01 21.320997 -157.913971 49 26ft 0kts
01-Jan-15 12:02 21.320997 -157.913971 49 26ft 0kts
01-Jan-15 12:03 21.320997 -157.913971 49 26ft 0kts
01-Jan-15 12:04 21.320997 -157.913971 49 26ft 0kts
01-Jan-15 12:05 21.320997 -157.913971 49 26ft 0kts
01-Jan-15 12:06 21.320997 -157.913971 49 26ft 0kts

Navigation Log

Ident Type
1. KMEM Airport
2. KM33I Fix
3. ZALDA Fix
4. KK42E Fix
5. KK45C Fix
6. KK48A Fix
7. KD51Y Fix
8. KD57W Fix
9. KD60U Fix
10. KU63Q Fix
11. BVL Navaid
12. FASTE Fix
13. SLOWN Fix
14. RBL Navaid
15. ADTIL Fix
16. AXELE Fix
17. ADOPE Fix
18. AUNTI Fix
19. APACK Fix
20. TOADS Fix
21. MAGGI Fix
22. BAMBO Fix
23. GRITL Fix
24. CKH Navaid
25. PHNL Airport